createdAt,value
2018-07-09T00:01:18.117Z,100.00
2018-07-09T00:03:46.309Z,100.00
2018-07-09T00:06:14.596Z,100.00
2018-07-09T00:08:42.799Z,100.00
2018-07-09T00:11:10.959Z,100.00
2018-07-09T00:13:39.341Z,100.00
2018-07-09T00:16:07.526Z,100.00
2018-07-09T00:18:35.754Z,100.00
2018-07-09T00:21:03.931Z,100.00
2018-07-09T00:23:32.127Z,100.00
2018-07-09T00:26:00.720Z,100.00
2018-07-09T00:28:28.887Z,100.00
2018-07-09T00:30:57.050Z,100.00
2018-07-09T00:33:25.238Z,100.00
2018-07-09T00:35:53.432Z,100.00
2018-07-09T00:38:21.592Z,100.00
2018-07-09T00:40:49.770Z,100.00
2018-07-09T00:43:17.945Z,100.00
2018-07-09T00:45:46.134Z,100.00
2018-07-09T00:48:14.308Z,100.00
2018-07-09T00:50:48.874Z,100.00
2018-07-09T00:53:17.029Z,100.00
2018-07-09T00:55:45.206Z,100.00
2018-07-09T00:58:13.373Z,100.00
2018-07-09T01:00:41.549Z,100.00
2018-07-09T01:03:09.721Z,100.00
2018-07-09T01:05:37.882Z,100.00
2018-07-09T01:08:06.067Z,100.00
2018-07-09T01:10:40.034Z,100.00
2018-07-09T01:13:08.210Z,100.00
2018-07-09T01:15:36.401Z,100.00
2018-07-09T01:18:04.601Z,100.00
2018-07-09T01:20:32.792Z,100.00
2018-07-09T01:23:01.397Z,100.00
2018-07-09T01:25:29.568Z,100.00
2018-07-09T01:27:57.749Z,100.00
2018-07-09T01:30:30.219Z,100.00
2018-07-09T01:32:58.381Z,100.00
2018-07-09T01:35:26.543Z,100.00
2018-07-09T01:37:54.699Z,100.00
2018-07-09T01:40:22.870Z,100.00
2018-07-09T01:42:51.025Z,100.00
2018-07-09T01:45:19.176Z,100.00
2018-07-09T01:47:47.382Z,100.00
2018-07-09T01:50:15.566Z,100.00
2018-07-09T01:52:43.723Z,100.00
2018-07-09T01:55:11.894Z,100.00
2018-07-09T01:57:40.246Z,100.00
2018-07-09T02:00:08.409Z,100.00
2018-07-09T02:02:36.598Z,100.00
2018-07-09T02:05:04.786Z,100.00
2018-07-09T02:07:32.941Z,100.00
2018-07-09T02:10:01.129Z,100.00
2018-07-09T02:12:29.285Z,100.00
2018-07-09T02:14:57.448Z,100.00
2018-07-09T02:17:25.609Z,100.00
2018-07-09T02:19:53.761Z,100.00
2018-07-09T02:22:21.929Z,100.00
2018-07-09T02:24:50.461Z,100.00
2018-07-09T02:27:18.629Z,100.00
2018-07-09T02:29:46.799Z,100.00
2018-07-09T02:32:14.969Z,100.00
2018-07-09T02:34:43.142Z,100.00
2018-07-09T02:37:11.297Z,100.00
2018-07-09T02:39:39.465Z,100.00
2018-07-09T02:42:07.645Z,100.00
2018-07-09T02:44:35.813Z,100.00
2018-07-09T02:47:03.999Z,100.00
2018-07-09T02:49:32.157Z,100.00
2018-07-09T02:52:00.813Z,100.00
2018-07-09T02:54:29.234Z,100.00
2018-07-09T02:56:57.399Z,100.00
2018-07-09T02:59:25.577Z,100.00
2018-07-09T03:01:53.764Z,100.00
2018-07-09T03:04:21.947Z,100.00
2018-07-09T03:06:50.110Z,100.00
2018-07-09T03:09:18.284Z,100.00
2018-07-09T03:11:46.448Z,100.00
2018-07-09T03:14:14.613Z,100.00
2018-07-09T03:16:42.797Z,100.00
2018-07-09T03:19:11.018Z,100.00
2018-07-09T03:21:39.192Z,100.00
2018-07-09T03:24:07.446Z,100.00
2018-07-09T03:26:35.624Z,100.00
2018-07-09T03:29:03.814Z,100.00
2018-07-09T03:31:31.991Z,100.00
2018-07-09T03:34:00.144Z,100.00
2018-07-09T03:36:28.308Z,100.00
2018-07-09T03:38:56.484Z,100.00
2018-07-09T03:41:24.650Z,100.00
2018-07-09T03:43:52.805Z,100.00
2018-07-09T03:46:20.979Z,100.00
2018-07-09T03:48:49.141Z,100.00
2018-07-09T03:51:17.302Z,100.00
2018-07-09T03:53:45.481Z,100.00
2018-07-09T03:56:13.651Z,100.00
2018-07-09T03:58:41.811Z,100.00
2018-07-09T04:01:10.049Z,100.00
2018-07-09T04:03:38.280Z,100.00
2018-07-09T04:06:06.553Z,100.00
2018-07-09T04:08:34.717Z,100.00
2018-07-09T04:11:02.882Z,100.00
2018-07-09T04:13:31.046Z,100.00
2018-07-09T04:15:59.233Z,100.00
2018-07-09T04:18:27.464Z,100.00
2018-07-09T04:20:56.761Z,100.00
2018-07-09T04:23:25.186Z,100.00
2018-07-09T04:25:53.358Z,100.00
2018-07-09T04:28:21.954Z,100.00
2018-07-09T04:30:50.198Z,100.00
2018-07-09T04:33:18.466Z,100.00
2018-07-09T04:35:46.656Z,100.00
2018-07-09T04:38:14.847Z,100.00
2018-07-09T04:40:43.033Z,100.00
2018-07-09T04:43:11.651Z,100.00
2018-07-09T04:45:39.783Z,100.00
2018-07-09T04:48:08.022Z,100.00
2018-07-09T04:50:36.186Z,100.00
2018-07-09T04:53:04.425Z,100.00
2018-07-09T04:55:32.637Z,100.00
2018-07-09T04:58:00.803Z,100.00
2018-07-09T05:00:29.061Z,100.00
2018-07-09T05:02:57.277Z,100.00
2018-07-09T05:05:25.451Z,100.00
2018-07-09T05:07:53.973Z,100.00
2018-07-09T05:10:22.156Z,100.00
2018-07-09T05:12:50.341Z,100.00
2018-07-09T05:15:18.563Z,100.00
2018-07-09T05:17:46.847Z,100.00
2018-07-09T05:20:15.082Z,100.00
2018-07-09T05:22:43.272Z,100.00
2018-07-09T05:25:11.542Z,100.00
2018-07-09T05:27:39.808Z,100.00
2018-07-09T05:30:08.414Z,100.00
2018-07-09T05:32:37.948Z,100.00
2018-07-09T05:35:06.418Z,100.00
2018-07-09T05:37:34.608Z,100.00
2018-07-09T05:40:02.831Z,99.47
2018-07-09T05:42:31.018Z,98.55
2018-07-09T05:44:59.309Z,99.71
2018-07-09T05:47:27.485Z,95.31
2018-07-09T05:49:55.730Z,94.82
2018-07-09T05:52:23.964Z,95.64
2018-07-09T05:54:52.185Z,96.89
2018-07-09T05:57:20.362Z,94.73
2018-07-09T05:59:48.543Z,96.93
2018-07-09T06:02:16.737Z,94.17
2018-07-09T06:04:44.949Z,93.50
2018-07-09T06:07:13.149Z,91.71
2018-07-09T06:09:41.404Z,87.99
2018-07-09T06:12:09.600Z,85.82
2018-07-09T06:14:37.904Z,81.76
2018-07-09T06:17:06.904Z,82.97
2018-07-09T06:19:35.254Z,88.03
2018-07-09T06:22:03.410Z,84.82
2018-07-09T06:24:31.598Z,86.62
2018-07-09T06:27:00.039Z,82.73
2018-07-09T06:29:28.202Z,78.96
2018-07-09T06:31:56.429Z,79.32
2018-07-09T06:34:24.702Z,80.88
2018-07-09T06:36:53.622Z,78.73
2018-07-09T06:39:21.874Z,77.05
2018-07-09T06:41:50.082Z,74.12
2018-07-09T06:44:18.422Z,73.14
2018-07-09T06:46:47.035Z,73.26
2018-07-09T06:49:15.444Z,71.40
2018-07-09T06:51:43.625Z,68.96
2018-07-09T06:54:11.865Z,68.79
2018-07-09T06:56:40.040Z,68.97
2018-07-09T06:59:08.223Z,66.88
2018-07-09T07:01:36.630Z,65.12
2018-07-09T07:04:04.927Z,61.45
2018-07-09T07:06:33.139Z,58.67
2018-07-09T07:09:01.447Z,58.36
2018-07-09T07:11:29.531Z,56.43
2018-07-09T07:13:57.721Z,53.13
2018-07-09T07:16:25.873Z,53.10
2018-07-09T07:18:54.051Z,55.83
2018-07-09T07:21:22.255Z,56.17
2018-07-09T07:23:50.429Z,54.05
2018-07-09T07:26:18.631Z,53.04
2018-07-09T07:28:46.802Z,53.72
2018-07-09T07:31:14.967Z,54.82
2018-07-09T07:33:43.230Z,49.38
2018-07-09T07:36:11.420Z,47.99
2018-07-09T07:38:39.686Z,50.28
2018-07-09T07:41:07.849Z,52.06
2018-07-09T07:43:36.016Z,46.61
2018-07-09T07:46:04.194Z,46.18
2018-07-09T07:48:32.358Z,50.00
2018-07-09T07:51:00.562Z,48.51
2018-07-09T07:53:28.782Z,48.91
2018-07-09T07:55:57.000Z,48.57
2018-07-09T07:58:25.121Z,47.28
2018-07-09T08:00:53.278Z,45.80
2018-07-09T08:03:21.457Z,47.51
2018-07-09T08:05:49.633Z,48.27
2018-07-09T08:08:17.869Z,47.93
2018-07-09T08:10:46.471Z,48.33
2018-07-09T08:13:27.991Z,50.01
2018-07-09T08:15:42.909Z,49.38
2018-07-09T08:18:11.085Z,49.18
2018-07-09T08:20:39.259Z,48.01
2018-07-09T08:23:07.419Z,46.65
2018-07-09T08:25:35.677Z,46.55
2018-07-09T08:28:03.905Z,47.93
2018-07-09T08:30:32.152Z,46.29
2018-07-09T08:33:00.322Z,46.56
2018-07-09T08:35:28.518Z,44.56
2018-07-09T08:37:56.689Z,44.22
2018-07-09T08:40:24.850Z,43.15
2018-07-09T08:42:53.038Z,42.42
2018-07-09T08:45:21.308Z,41.14
2018-07-09T08:47:49.454Z,43.89
2018-07-09T08:50:17.961Z,42.43
2018-07-09T08:52:46.136Z,41.42
2018-07-09T08:55:14.366Z,39.83
2018-07-09T08:57:42.505Z,41.86
2018-07-09T09:00:10.762Z,41.81
2018-07-09T09:02:39.481Z,43.38
2018-07-09T09:05:07.749Z,40.45
2018-07-09T09:07:36.039Z,41.17
2018-07-09T09:10:04.325Z,42.30
2018-07-09T09:12:32.513Z,41.37
2018-07-09T09:15:01.013Z,40.17
2018-07-09T09:17:29.295Z,39.01
2018-07-09T09:19:57.493Z,37.10
2018-07-09T09:22:25.687Z,37.26
2018-07-09T09:24:53.879Z,37.27
2018-07-09T09:27:22.106Z,34.82
2018-07-09T09:29:50.266Z,36.54
2018-07-09T09:32:18.771Z,38.09
2018-07-09T09:34:47.042Z,37.56
2018-07-09T09:37:15.214Z,36.42
2018-07-09T09:39:43.497Z,37.10
2018-07-09T09:42:11.782Z,35.07
2018-07-09T09:44:40.024Z,35.38
2018-07-09T09:47:08.203Z,34.55
2018-07-09T09:49:36.470Z,34.37
2018-07-09T09:52:04.656Z,34.15
2018-07-09T09:54:32.817Z,34.11
2018-07-09T09:57:01.001Z,34.18
2018-07-09T09:59:29.177Z,36.70
2018-07-09T10:01:57.449Z,37.08
2018-07-09T10:04:25.641Z,36.93
2018-07-09T10:06:53.817Z,37.61
2018-07-09T10:09:22.021Z,36.10
2018-07-09T10:11:50.269Z,36.06
2018-07-09T10:14:18.528Z,37.02
2018-07-09T10:16:46.850Z,36.27
2018-07-09T10:19:14.992Z,36.61
2018-07-09T10:21:43.297Z,36.59
2018-07-09T10:24:11.483Z,35.52
2018-07-09T10:26:39.712Z,36.52
2018-07-09T10:29:07.876Z,37.73
2018-07-09T10:31:36.064Z,36.86
2018-07-09T10:34:04.282Z,34.93
2018-07-09T10:36:32.722Z,34.03
2018-07-09T10:39:00.894Z,33.45
2018-07-09T10:41:29.080Z,33.64
2018-07-09T10:43:57.322Z,33.29
2018-07-09T10:46:25.506Z,31.65
2018-07-09T10:48:53.696Z,31.29
2018-07-09T10:51:21.896Z,28.52
2018-07-09T10:53:50.139Z,28.09
2018-07-09T10:56:18.430Z,28.13
2018-07-09T10:58:46.766Z,28.13
2018-07-09T11:01:15.034Z,25.78
2018-07-09T11:03:43.253Z,24.34
2018-07-09T11:06:11.442Z,26.54
2018-07-09T11:08:39.614Z,27.03
2018-07-09T11:11:07.829Z,27.38
2018-07-09T11:13:36.113Z,30.51
2018-07-09T11:16:04.319Z,31.93
2018-07-09T11:18:32.537Z,31.00
2018-07-09T11:21:00.767Z,31.50
2018-07-09T11:23:28.957Z,31.87
2018-07-09T11:25:57.247Z,33.51
2018-07-09T11:28:25.414Z,34.69
2018-07-09T11:30:53.599Z,33.44
2018-07-09T11:33:21.789Z,32.98
2018-07-09T11:35:49.951Z,33.30
2018-07-09T11:38:18.263Z,33.73
2018-07-09T11:40:46.447Z,33.91
2018-07-09T11:43:14.633Z,33.99
2018-07-09T11:45:43.061Z,32.82
2018-07-09T11:48:11.283Z,34.98
2018-07-09T11:50:39.577Z,34.21
2018-07-09T11:53:07.788Z,33.86
2018-07-09T11:55:36.031Z,33.00
2018-07-09T11:58:04.214Z,32.82
2018-07-09T12:00:32.406Z,32.96
2018-07-09T12:03:00.596Z,32.64
2018-07-09T12:05:28.878Z,31.50
2018-07-09T12:07:57.038Z,30.41
2018-07-09T12:10:25.269Z,27.35
2018-07-09T12:12:53.762Z,21.84
2018-07-09T12:15:21.929Z,23.38
2018-07-09T12:17:50.122Z,20.00
2018-07-09T12:20:18.361Z,17.05
2018-07-09T12:22:46.530Z,18.36
2018-07-09T12:25:14.713Z,17.96
2018-07-09T12:27:42.905Z,18.43
2018-07-09T12:30:11.081Z,18.93
2018-07-09T12:32:39.277Z,17.07
2018-07-09T12:35:07.502Z,17.51
2018-07-09T12:37:35.688Z,16.90
2018-07-09T12:40:04.011Z,18.44
2018-07-09T12:42:32.169Z,15.88
2018-07-09T12:45:00.346Z,20.86
2018-07-09T12:47:28.525Z,22.14
2018-07-09T12:49:56.747Z,24.25
2018-07-09T12:52:24.949Z,22.67
2018-07-09T12:54:53.467Z,24.59
2018-07-09T12:57:21.650Z,27.15
2018-07-09T12:59:49.840Z,27.64
2018-07-09T13:02:18.061Z,27.82
2018-07-09T13:04:46.302Z,27.82
2018-07-09T13:07:14.480Z,29.43
2018-07-09T13:09:42.660Z,30.09
2018-07-09T13:12:10.818Z,30.68
2018-07-09T13:14:38.978Z,32.24
2018-07-09T13:17:07.152Z,33.21
2018-07-09T13:19:35.318Z,34.41
2018-07-09T13:22:03.541Z,33.68
2018-07-09T13:24:31.825Z,34.97
2018-07-09T13:26:59.989Z,35.13
2018-07-09T13:29:28.157Z,33.03
2018-07-09T13:31:56.357Z,33.43
2018-07-09T13:34:24.585Z,34.53
2018-07-09T13:36:52.769Z,34.05
2018-07-09T13:39:21.027Z,33.42
2018-07-09T13:41:49.217Z,34.63
2018-07-09T13:44:17.386Z,33.91
2018-07-09T13:46:45.573Z,32.85
2018-07-09T13:49:13.807Z,33.69
2018-07-09T13:51:41.960Z,35.01
2018-07-09T13:54:10.140Z,34.67
2018-07-09T13:56:38.660Z,30.68
2018-07-09T13:59:06.844Z,31.54
2018-07-09T14:01:35.027Z,32.59
2018-07-09T14:04:03.297Z,31.93
2018-07-09T14:06:31.471Z,32.12
2018-07-09T14:08:59.659Z,32.14
2018-07-09T14:11:28.058Z,32.69
2018-07-09T14:13:56.580Z,32.56
2018-07-09T14:16:24.754Z,35.13
2018-07-09T14:18:53.062Z,34.91
2018-07-09T14:21:21.261Z,36.54
2018-07-09T14:23:49.490Z,36.03
2018-07-09T14:26:17.758Z,36.28
2018-07-09T14:28:46.294Z,37.86
2018-07-09T14:31:14.522Z,36.27
2018-07-09T14:33:42.829Z,38.29
2018-07-09T14:36:11.062Z,39.19
2018-07-09T14:38:39.267Z,40.30
2018-07-09T14:41:07.474Z,42.08
2018-07-09T14:43:35.681Z,40.94
2018-07-09T14:46:03.881Z,43.67
2018-07-09T14:48:32.185Z,44.01
2018-07-09T14:51:00.442Z,43.73
2018-07-09T14:53:28.707Z,42.15
2018-07-09T14:55:56.897Z,44.66
2018-07-09T14:58:25.317Z,45.13
2018-07-09T15:00:53.963Z,45.08
2018-07-09T15:03:22.124Z,42.77
2018-07-09T15:05:50.392Z,42.96
2018-07-09T15:08:18.678Z,41.08
2018-07-09T15:10:47.904Z,40.35
2018-07-09T15:13:16.146Z,42.62
2018-07-09T15:15:45.061Z,43.30
2018-07-09T15:18:13.358Z,44.86
2018-07-09T15:20:41.598Z,45.20
2018-07-09T15:23:09.793Z,44.13
2018-07-09T15:25:38.142Z,44.31
2018-07-09T15:28:06.390Z,46.25
2018-07-09T15:30:34.573Z,53.36
2018-07-09T15:33:02.742Z,57.75
2018-07-09T15:35:31.406Z,52.66
2018-07-09T15:37:59.737Z,50.48
2018-07-09T15:40:27.931Z,55.60
2018-07-09T15:42:56.157Z,55.94
2018-07-09T15:45:24.478Z,53.54
2018-07-09T15:47:52.647Z,53.04
2018-07-09T15:50:20.919Z,52.47
2018-07-09T15:52:49.782Z,53.10
2018-07-09T15:55:18.019Z,52.57
2018-07-09T15:57:46.430Z,52.02
2018-07-09T16:00:14.741Z,52.84
2018-07-09T16:02:43.016Z,50.92
2018-07-09T16:05:11.385Z,50.60
2018-07-09T16:07:39.680Z,48.71
2018-07-09T16:10:07.938Z,44.33
2018-07-09T16:12:36.194Z,44.35
2018-07-09T16:15:05.254Z,44.28
2018-07-09T16:17:34.542Z,44.31
2018-07-09T16:20:02.754Z,44.37
2018-07-09T16:22:31.466Z,45.46
2018-07-09T16:24:59.740Z,44.66
2018-07-09T16:27:27.946Z,44.88
2018-07-09T16:29:56.222Z,45.90
2018-07-09T16:32:24.503Z,48.37
2018-07-09T16:34:52.676Z,47.99
2018-07-09T16:37:20.849Z,48.23
2018-07-09T16:39:49.034Z,45.97
2018-07-09T16:42:17.309Z,46.39
2018-07-09T16:44:45.470Z,44.51
2018-07-09T16:47:13.645Z,42.77
2018-07-09T16:49:41.877Z,40.19
2018-07-09T16:52:10.115Z,40.98
2018-07-09T16:54:38.301Z,40.91
2018-07-09T16:57:06.465Z,42.24
2018-07-09T16:59:34.654Z,42.17
2018-07-09T17:02:02.840Z,41.37
2018-07-09T17:04:30.996Z,40.86
2018-07-09T17:06:59.227Z,40.83
2018-07-09T17:09:27.596Z,40.55
2018-07-09T17:11:55.865Z,40.46
2018-07-09T17:14:24.079Z,41.54
2018-07-09T17:16:52.338Z,41.05
2018-07-09T17:19:20.599Z,40.31
2018-07-09T17:21:48.783Z,40.03
2018-07-09T17:24:17.474Z,39.74
2018-07-09T17:26:45.795Z,40.43
2018-07-09T17:29:13.932Z,40.46
2018-07-09T17:31:42.099Z,40.38
2018-07-09T17:34:10.278Z,41.34
2018-07-09T17:36:38.502Z,41.10
2018-07-09T17:39:06.694Z,41.88
2018-07-09T17:41:34.879Z,41.71
2018-07-09T17:44:03.162Z,42.34
2018-07-09T17:46:31.325Z,42.18
2018-07-09T17:48:59.645Z,43.49
2018-07-09T17:51:27.891Z,44.36
2018-07-09T17:53:56.881Z,44.33
2018-07-09T17:56:25.165Z,45.69
2018-07-09T17:58:53.353Z,47.33
2018-07-09T18:01:21.522Z,48.78
2018-07-09T18:03:49.989Z,49.52
2018-07-09T18:06:18.225Z,51.19
2018-07-09T18:08:46.427Z,52.22
2018-07-09T18:11:14.600Z,52.58
2018-07-09T18:13:42.908Z,52.89
2018-07-09T18:16:11.039Z,53.33
2018-07-09T18:18:39.208Z,53.98
2018-07-09T18:21:07.415Z,55.07
2018-07-09T18:23:35.679Z,55.36
2018-07-09T18:26:04.779Z,56.97
2018-07-09T18:28:33.005Z,57.63
2018-07-09T18:31:01.258Z,58.42
2018-07-09T18:33:29.422Z,59.94
2018-07-09T18:35:57.712Z,60.82
2018-07-09T18:38:26.102Z,61.67
2018-07-09T18:40:54.318Z,62.38
2018-07-09T18:43:22.512Z,63.99
2018-07-09T18:45:50.709Z,64.56
2018-07-09T18:48:18.955Z,64.46
2018-07-09T18:50:47.347Z,65.53
2018-07-09T18:53:15.561Z,65.94
2018-07-09T18:55:43.745Z,68.66
2018-07-09T18:58:11.947Z,67.40
2018-07-09T19:00:40.193Z,65.80
2018-07-09T19:03:08.411Z,67.24
2018-07-09T19:06:47.243Z,67.27
2018-07-09T19:09:15.449Z,68.95
2018-07-09T19:11:43.625Z,68.66
2018-07-09T19:14:12.321Z,69.83
2018-07-09T19:16:52.360Z,69.48
2018-07-09T19:19:32.235Z,69.66
2018-07-09T19:22:01.309Z,70.65
2018-07-09T19:24:28.762Z,71.59
2018-07-09T19:26:56.558Z,72.62
2018-07-09T19:29:23.670Z,72.39
2018-07-09T19:31:50.800Z,73.16
2018-07-09T19:34:17.941Z,72.20
2018-07-09T19:36:45.226Z,77.00
2018-07-09T19:39:12.692Z,76.11
2018-07-09T19:41:39.976Z,73.43
2018-07-09T19:44:07.037Z,72.21
2018-07-09T19:46:34.182Z,71.88
2018-07-09T19:49:01.336Z,72.35
2018-07-09T19:51:28.435Z,72.05
2018-07-09T19:53:55.815Z,71.87
2018-07-09T19:56:23.122Z,72.21
2018-07-09T19:58:50.239Z,72.54
2018-07-09T20:01:17.347Z,73.76
2018-07-09T20:03:44.488Z,73.74
2018-07-09T20:06:11.583Z,74.56
2018-07-09T20:08:43.939Z,73.00
2018-07-09T20:11:16.318Z,73.74
2018-07-09T20:13:51.480Z,74.55
2018-07-09T20:16:24.035Z,76.77
2018-07-09T20:18:52.810Z,77.09
2018-07-09T20:21:19.951Z,76.25
2018-07-09T20:23:47.077Z,76.44
2018-07-09T20:26:14.187Z,77.39
2018-07-09T20:28:41.360Z,78.46
2018-07-09T20:31:08.456Z,79.86
2018-07-09T20:33:35.602Z,80.98
2018-07-09T20:36:02.706Z,82.03
2018-07-09T20:38:29.824Z,81.97
2018-07-09T20:40:56.940Z,82.30
2018-07-09T20:43:24.056Z,83.93
2018-07-09T20:45:51.222Z,84.89
2018-07-09T20:48:18.446Z,86.43
2018-07-09T20:50:45.550Z,88.02
2018-07-09T20:53:12.686Z,90.54
2018-07-09T20:55:40.045Z,92.37
2018-07-09T20:58:07.145Z,94.76
2018-07-09T21:00:34.310Z,95.83
2018-07-09T21:03:01.422Z,98.05
2018-07-09T21:05:28.647Z,100.00
2018-07-09T21:07:55.769Z,100.00
2018-07-09T21:10:22.925Z,100.00
2018-07-09T21:12:56.741Z,100.00
2018-07-09T21:15:25.066Z,100.00
2018-07-09T21:17:51.917Z,100.00
2018-07-09T21:20:19.709Z,100.00
2018-07-09T21:22:47.525Z,100.00
2018-07-09T21:25:15.452Z,100.00
2018-07-09T21:27:42.563Z,100.00
2018-07-09T21:30:09.681Z,100.00
2018-07-09T21:32:36.894Z,100.00
2018-07-09T21:35:04.237Z,100.00
2018-07-09T21:37:31.480Z,100.00
2018-07-09T21:39:58.490Z,100.00
2018-07-09T21:42:25.595Z,100.00
2018-07-09T21:44:52.718Z,100.00
2018-07-09T21:47:19.848Z,100.00
2018-07-09T21:49:46.958Z,100.00
2018-07-09T21:52:14.362Z,100.00
2018-07-09T21:54:41.466Z,100.00
2018-07-09T21:57:08.574Z,100.00
2018-07-09T21:59:35.701Z,100.00
2018-07-09T22:02:02.814Z,100.00
2018-07-09T22:04:29.918Z,100.00
2018-07-09T22:06:57.034Z,100.00
2018-07-09T22:09:24.138Z,100.00
2018-07-09T22:11:51.250Z,100.00
2018-07-09T22:14:18.606Z,100.00
2018-07-09T22:16:45.719Z,100.00
2018-07-09T22:19:12.886Z,100.00
2018-07-09T22:21:40.018Z,100.00
2018-07-09T22:24:07.121Z,100.00
2018-07-09T22:26:34.229Z,100.00
2018-07-09T22:29:01.371Z,100.00
2018-07-09T22:31:29.650Z,100.00
2018-07-09T22:33:57.865Z,100.00
2018-07-09T22:36:26.095Z,100.00
2018-07-09T22:38:54.274Z,100.00
2018-07-09T22:41:22.534Z,100.00
2018-07-09T22:44:02.154Z,100.00
2018-07-09T22:46:30.392Z,100.00
2018-07-09T22:48:58.667Z,100.00
2018-07-09T22:51:26.875Z,100.00
2018-07-09T22:53:55.558Z,100.00
2018-07-09T22:56:23.750Z,100.00
2018-07-09T22:58:52.003Z,100.00
2018-07-09T23:01:20.170Z,100.00
2018-07-09T23:03:48.414Z,100.00
2018-07-09T23:06:16.618Z,100.00
2018-07-09T23:08:44.782Z,100.00
2018-07-09T23:11:26.116Z,100.00
2018-07-09T23:17:12.830Z,100.00
2018-07-09T23:20:07.907Z,100.00
2018-07-09T23:22:35.018Z,100.00
2018-07-09T23:25:02.132Z,100.00
2018-07-09T23:27:29.245Z,100.00
2018-07-09T23:29:56.385Z,100.00
2018-07-09T23:32:23.489Z,100.00
2018-07-09T23:34:50.597Z,100.00
2018-07-09T23:37:17.718Z,100.00
2018-07-09T23:39:44.817Z,100.00
2018-07-09T23:42:11.978Z,100.00
2018-07-09T23:44:39.045Z,100.00
2018-07-09T23:47:06.163Z,100.00
2018-07-09T23:49:33.263Z,100.00
2018-07-09T23:52:00.383Z,100.00
2018-07-09T23:54:27.489Z,100.00
2018-07-09T23:58:03.721Z,100.00
